sensor_id;sensor_type;location;lat;lon;timestamp;pressure;altitude;pressure_sealevel;temperature;humidity
8699;BME280;4386;51.236;6.742;2023-05-09T00:00:52;97061.31;;;19.10;62.94
8699;BME280;4386;51.236;6.742;2023-05-09T00:01:56;97051.13;;;19.07;63.38
8699;BME280;4386;51.236;6.742;2023-05-09T00:02:59;97056.50;;;19.07;62.99
8699;BME280;4386;51.236;6.742;2023-05-09T00:04:03;97057.53;;;19.06;63.13
8699;BME280;4386;51.236;6.742;2023-05-09T00:05:07;97058.59;;;19.05;62.88
8699;BME280;4386;51.236;6.742;2023-05-09T00:06:10;97053.53;;;19.04;63.26
8699;BME280;4386;51.236;6.742;2023-05-09T00:07:14;97058.59;;;19.05;63.08
8699;BME280;4386;51.236;6.742;2023-05-09T00:08:16;97051.63;;;19.04;63.16
8699;BME280;4386;51.236;6.742;2023-05-09T00:09:20;97049.47;;;19.01;63.16
8699;BME280;4386;51.236;6.742;2023-05-09T00:10:22;97052.69;;;18.98;63.04
8699;BME280;4386;51.236;6.742;2023-05-09T00:11:26;97053.47;;;18.94;63.07
8699;BME280;4386;51.236;6.742;2023-05-09T00:12:29;97048.38;;;18.92;63.32
8699;BME280;4386;51.236;6.742;2023-05-09T00:13:33;97048.38;;;18.92;63.28
8699;BME280;4386;51.236;6.742;2023-05-09T00:14:36;97044.63;;;18.93;63.53
8699;BME280;4386;51.236;6.742;2023-05-09T00:15:43;97042.22;;;18.97;63.05
8699;BME280;4386;51.236;6.742;2023-05-09T00:16:45;97040.88;;;18.99;63.28
8699;BME280;4386;51.236;6.742;2023-05-09T00:17:49;97040.34;;;19.02;63.30
8699;BME280;4386;51.236;6.742;2023-05-09T00:18:51;97043.03;;;19.02;62.79
8699;BME280;4386;51.236;6.742;2023-05-09T00:19:55;97046.78;;;19.01;62.88
8699;BME280;4386;51.236;6.742;2023-05-09T00:20:57;97042.50;;;19.00;62.94
8699;BME280;4386;51.236;6.742;2023-05-09T00:22:03;97041.97;;;19.03;63.23
8699;BME280;4386;51.236;6.742;2023-05-09T00:23:06;97046.78;;;19.01;63.00
8699;BME280;4386;51.236;6.742;2023-05-09T00:24:09;97046.78;;;19.01;63.05
8699;BME280;4386;51.236;6.742;2023-05-09T00:25:12;97045.47;;;19.04;63.15
8699;BME280;4386;51.236;6.742;2023-05-09T00:26:16;97037.66;;;19.02;62.77
8699;BME280;4386;51.236;6.742;2023-05-09T00:27:19;97042.50;;;19.00;62.90
8699;BME280;4386;51.236;6.742;2023-05-09T00:28:22;97039.81;;;19.00;62.99
8699;BME280;4386;51.236;6.742;2023-05-09T00:29:24;97038.19;;;18.99;62.99
8699;BME280;4386;51.236;6.742;2023-05-09T00:30:28;97041.94;;;18.98;63.20
8699;BME280;4386;51.236;6.742;2023-05-09T00:31:32;97037.66;;;18.97;63.17
8699;BME280;4386;51.236;6.742;2023-05-09T00:32:35;97034.69;;;18.94;63.03
8699;BME280;4386;51.236;6.742;2023-05-09T00:33:38;97034.66;;;18.89;63.07
8699;BME280;4386;51.236;6.742;2023-05-09T00:34:41;97033.31;;;18.86;63.27
8699;BME280;4386;51.236;6.742;2023-05-09T00:35:44;97033.84;;;18.83;63.19
8699;BME280;4386;51.236;6.742;2023-05-09T00:36:47;97034.91;;;18.82;63.06
8699;BME280;4386;51.236;6.742;2023-05-09T00:37:51;97039.47;;;18.82;63.11
8699;BME280;4386;51.236;6.742;2023-05-09T00:38:55;97032.22;;;18.82;63.06
8699;BME280;4386;51.236;6.742;2023-05-09T00:39:57;97042.44;;;18.80;63.20
8699;BME280;4386;51.236;6.742;2023-05-09T00:41:01;97031.16;;;18.78;62.98
8699;BME280;4386;51.236;6.742;2023-05-09T00:42:04;97042.94;;;18.77;63.28
8699;BME280;4386;51.236;6.742;2023-05-09T00:43:07;97041.31;;;18.76;62.82
8699;BME280;4386;51.236;6.742;2023-05-09T00:44:10;97032.22;;;18.77;62.93
8699;BME280;4386;51.236;6.742;2023-05-09T00:45:13;97044.28;;;18.75;63.20
8699;BME280;4386;51.236;6.742;2023-05-09T00:46:16;97041.09;;;18.78;63.21
8699;BME280;4386;51.236;6.742;2023-05-09T00:47:21;97032.75;;;18.79;63.28
8699;BME280;4386;51.236;6.742;2023-05-09T00:48:25;97030.88;;;18.80;63.15
8699;BME280;4386;51.236;6.742;2023-05-09T00:49:28;97028.19;;;18.80;63.19
8699;BME280;4386;51.236;6.742;2023-05-09T00:50:31;97029.00;;;18.80;63.09
8699;BME280;4386;51.236;6.742;2023-05-09T00:51:35;97032.75;;;18.79;63.24
8699;BME280;4386;51.236;6.742;2023-05-09T00:52:38;97025.78;;;18.78;62.72
8699;BME280;4386;51.236;6.742;2023-05-09T00:53:41;97030.06;;;18.79;62.96
8699;BME280;4386;51.236;6.742;2023-05-09T00:54:43;97029.53;;;18.77;62.97
8699;BME280;4386;51.236;6.742;2023-05-09T00:55:47;97032.50;;;18.81;62.83
8699;BME280;4386;51.236;6.742;2023-05-09T00:56:50;97024.97;;;18.78;63.16
8699;BME280;4386;51.236;6.742;2023-05-09T00:57:53;97023.13;;;18.78;63.01
8699;BME280;4386;51.236;6.742;2023-05-09T00:58:56;97019.63;;;18.78;62.93
8699;BME280;4386;51.236;6.742;2023-05-09T01:00:00;97018.81;;;18.77;62.69
8699;BME280;4386;51.236;6.742;2023-05-09T01:01:04;97023.34;;;18.77;62.78
8699;BME280;4386;51.236;6.742;2023-05-09T01:02:07;97022.00;;;18.74;62.62
8699;BME280;4386;51.236;6.742;2023-05-09T01:03:11;97034.34;;;18.70;62.92
8699;BME280;4386;51.236;6.742;2023-05-09T01:04:15;97022.50;;;18.66;63.12
8699;BME280;4386;51.236;6.742;2023-05-09T01:05:18;97020.38;;;18.68;63.00
8699;BME280;4386;51.236;6.742;2023-05-09T01:06:31;97018.47;;;18.68;62.96
8699;BME280;4386;51.236;6.742;2023-05-09T01:07:45;97028.16;;;18.64;62.96
8699;BME280;4386;51.236;6.742;2023-05-09T01:08:56;97025.47;;;18.64;62.91
8699;BME280;4386;51.236;6.742;2023-05-09T01:10:05;97013.94;;;18.64;63.16
8699;BME280;4386;51.236;6.742;2023-05-09T01:11:19;97020.09;;;18.64;62.93
8699;BME280;4386;51.236;6.742;2023-05-09T01:12:30;97018.22;;;18.65;62.91
8699;BME280;4386;51.236;6.742;2023-05-09T01:13:43;97013.94;;;18.64;62.79
8699;BME280;4386;51.236;6.742;2023-05-09T01:15:06;97006.94;;;18.63;62.68
8699;BME280;4386;51.236;6.742;2023-05-09T01:16:17;97010.44;;;18.63;62.55
8699;BME280;4386;51.236;6.742;2023-05-09T01:17:32;97013.94;;;18.64;62.60
8699;BME280;4386;51.236;6.742;2023-05-09T01:18:42;97023.03;;;18.63;62.47
8699;BME280;4386;51.236;6.742;2023-05-09T01:19:56;97018.19;;;18.60;62.80
8699;BME280;4386;51.236;6.742;2023-05-09T01:21:05;97014.94;;;18.53;62.61
8699;BME280;4386;51.236;6.742;2023-05-09T01:22:11;97011.41;;;18.47;62.65
8699;BME280;4386;51.236;6.742;2023-05-09T01:23:33;97019.97;;;18.44;62.77
8699;BME280;4386;51.236;6.742;2023-05-09T01:25:11;97013.81;;;18.44;62.73
8699;BME280;4386;51.236;6.742;2023-05-09T01:26:25;97010.81;;;18.40;62.96
8699;BME280;4386;51.236;6.742;2023-05-09T01:27:44;97014.84;;;18.43;62.84
8699;BME280;4386;51.236;6.742;2023-05-09T01:29:14;97013.81;;;18.44;62.55
8699;BME280;4386;51.236;6.742;2023-05-09T01:30:19;97024.53;;;18.44;62.88
8699;BME280;4386;51.236;6.742;2023-05-09T01:31:23;97022.38;;;18.46;62.85
8699;BME280;4386;51.236;6.742;2023-05-09T01:32:27;97022.66;;;18.49;62.49
8699;BME280;4386;51.236;6.742;2023-05-09T01:33:36;97011.72;;;18.51;62.58
8699;BME280;4386;51.236;6.742;2023-05-09T01:34:40;97015.22;;;18.51;62.64
8699;BME280;4386;51.236;6.742;2023-05-09T01:35:50;97017.09;;;18.51;62.40
8699;BME280;4386;51.236;6.742;2023-05-09T01:36:57;97021.84;;;18.49;62.41
8699;BME280;4386;51.236;6.742;2023-05-09T01:38:01;97022.09;;;18.42;62.51
8699;BME280;4386;51.236;6.742;2023-05-09T01:39:11;97023.94;;;18.37;62.60
8699;BME280;4386;51.236;6.742;2023-05-09T01:40:16;97023.94;;;18.32;63.06
8699;BME280;4386;51.236;6.742;2023-05-09T01:41:21;97021.78;;;18.29;62.83
8699;BME280;4386;51.236;6.742;2023-05-09T01:42:28;97017.19;;;18.29;62.78
8699;BME280;4386;51.236;6.742;2023-05-09T01:43:33;97026.56;;;18.27;62.99
8699;BME280;4386;51.236;6.742;2023-05-09T01:44:40;97020.69;;;18.25;63.02
8699;BME280;4386;51.236;6.742;2023-05-09T01:45:45;97021.19;;;18.21;63.31
8699;BME280;4386;51.236;6.742;2023-05-09T01:46:51;97016.66;;;18.22;63.30
8699;BME280;4386;51.236;6.742;2023-05-09T01:47:56;97020.09;;;18.22;63.41
8699;BME280;4386;51.236;6.742;2023-05-09T01:48:59;97017.19;;;18.24;63.30
8699;BME280;4386;51.236;6.742;2023-05-09T01:50:04;97007.28;;;18.25;63.20
8699;BME280;4386;51.236;6.742;2023-05-09T01:51:08;97009.66;;;18.26;63.36
8699;BME280;4386;51.236;6.742;2023-05-09T01:52:15;97015.59;;;18.28;63.07
8699;BME280;4386;51.236;6.742;2023-05-09T01:53:19;97012.66;;;18.30;63.05
8699;BME280;4386;51.236;6.742;2023-05-09T01:54:24;97015.31;;;18.25;63.13
8699;BME280;4386;51.236;6.742;2023-05-09T01:55:31;97004.03;;;18.22;63.36
8699;BME280;4386;51.236;6.742;2023-05-09T01:56:36;97007.78;;;18.21;63.22
8699;BME280;4386;51.236;6.742;2023-05-09T01:57:42;97012.06;;;18.22;63.07
8699;BME280;4386;51.236;6.742;2023-05-09T01:58:46;97025.75;;;18.21;63.25
8699;BME280;4386;51.236;6.742;2023-05-09T01:59:53;97016.66;;;18.22;63.35
8699;BME280;4386;51.236;6.742;2023-05-09T02:00:58;97014.75;;;18.22;63.19
8699;BME280;4386;51.236;6.742;2023-05-09T02:02:02;97006.47;;;18.24;62.99
8699;BME280;4386;51.236;6.742;2023-05-09T02:03:07;97015.31;;;18.25;63.26
8699;BME280;4386;51.236;6.742;2023-05-09T02:04:10;97007.81;;;18.27;63.16
8699;BME280;4386;51.236;6.742;2023-05-09T02:05:16;97004.88;;;18.28;63.45
8699;BME280;4386;51.236;6.742;2023-05-09T02:06:21;97008.91;;;18.26;62.88
8699;BME280;4386;51.236;6.742;2023-05-09T02:07:27;97014.47;;;18.19;63.29
8699;BME280;4386;51.236;6.742;2023-05-09T02:08:31;97009.06;;;18.14;63.37
8699;BME280;4386;51.236;6.742;2023-05-09T02:09:35;97016.28;;;18.08;63.62
8699;BME280;4386;51.236;6.742;2023-05-09T02:10:38;97013.56;;;18.03;63.54
8699;BME280;4386;51.236;6.742;2023-05-09T02:11:41;97018.63;;;18.00;63.71
8699;BME280;4386;51.236;6.742;2023-05-09T02:12:44;97015.13;;;17.94;63.79
8699;BME280;4386;51.236;6.742;2023-05-09T02:13:48;97022.63;;;17.92;63.83
8699;BME280;4386;51.236;6.742;2023-05-09T02:14:53;97020.47;;;17.94;63.64
8699;BME280;4386;51.236;6.742;2023-05-09T02:15:56;97029.09;;;17.96;63.73
8699;BME280;4386;51.236;6.742;2023-05-09T02:16:59;97017.56;;;18.01;63.74
8699;BME280;4386;51.236;6.742;2023-05-09T02:18:07;97011.97;;;18.02;63.82
8699;BME280;4386;51.236;6.742;2023-05-09T02:19:10;97016.81;;;18.05;63.63
8699;BME280;4386;51.236;6.742;2023-05-09T02:20:13;97016.28;;;18.08;63.57
8699;BME280;4386;51.236;6.742;2023-05-09T02:21:16;97021.66;;;18.08;63.75
8699;BME280;4386;51.236;6.742;2023-05-09T02:22:19;97025.38;;;18.07;63.61
8699;BME280;4386;51.236;6.742;2023-05-09T02:23:21;97021.59;;;18.03;63.40
8699;BME280;4386;51.236;6.742;2023-05-09T02:24:25;97016.50;;;18.02;63.50
8699;BME280;4386;51.236;6.742;2023-05-09T02:25:27;97021.06;;;18.01;63.28
8699;BME280;4386;51.236;6.742;2023-05-09T02:26:32;97017.84;;;17.99;63.42
8699;BME280;4386;51.236;6.742;2023-05-09T02:27:37;97019.44;;;18.00;63.38
8699;BME280;4386;51.236;6.742;2023-05-09T02:28:43;97024.78;;;18.00;63.40
8699;BME280;4386;51.236;6.742;2023-05-09T02:29:48;97026.94;;;17.98;63.70
8699;BME280;4386;51.236;6.742;2023-05-09T02:30:54;97020.47;;;17.94;63.87
8699;BME280;4386;51.236;6.742;2023-05-09T02:31:59;97023.94;;;17.90;63.73
8699;BME280;4386;51.236;6.742;2023-05-09T02:33:05;97019.88;;;17.87;63.95
8699;BME280;4386;51.236;6.742;2023-05-09T02:34:09;97021.72;;;17.82;64.09
8699;BME280;4386;51.236;6.742;2023-05-09T02:35:15;97021.97;;;17.80;64.17
8699;BME280;4386;51.236;6.742;2023-05-09T02:36:18;97021.97;;;17.80;64.24
8699;BME280;4386;51.236;6.742;2023-05-09T02:37:23;97018.22;;;17.81;64.07
8699;BME280;4386;51.236;6.742;2023-05-09T02:38:26;97016.59;;;17.80;64.30
8699;BME280;4386;51.236;6.742;2023-05-09T02:39:31;97010.19;;;17.81;64.00
8699;BME280;4386;51.236;6.742;2023-05-09T02:40:33;97012.38;;;17.84;63.90
8699;BME280;4386;51.236;6.742;2023-05-09T02:41:37;97015.59;;;17.86;63.70
8699;BME280;4386;51.236;6.742;2023-05-09T02:42:40;97010.25;;;17.86;63.99
8699;BME280;4386;51.236;6.742;2023-05-09T02:43:43;97017.19;;;17.87;63.98
8699;BME280;4386;51.236;6.742;2023-05-09T02:44:46;97014.53;;;17.87;63.81
8699;BME280;4386;51.236;6.742;2023-05-09T02:45:50;97014.53;;;17.87;63.73
8699;BME280;4386;51.236;6.742;2023-05-09T02:46:54;97017.78;;;17.89;63.72
8699;BME280;4386;51.236;6.742;2023-05-09T02:47:57;97016.97;;;17.89;63.88
8699;BME280;4386;51.236;6.742;2023-05-09T02:49:00;97010.78;;;17.88;63.81
8699;BME280;4386;51.236;6.742;2023-05-09T02:50:05;97014.00;;;17.90;63.73
8699;BME280;4386;51.236;6.742;2023-05-09T02:51:08;97011.59;;;17.89;63.95
8699;BME280;4386;51.236;6.742;2023-05-09T02:52:11;97018.59;;;17.90;63.79
8699;BME280;4386;51.236;6.742;2023-05-09T02:53:13;97019.38;;;17.90;63.90
8699;BME280;4386;51.236;6.742;2023-05-09T02:54:17;97024.72;;;17.90;63.67
8699;BME280;4386;51.236;6.742;2023-05-09T02:55:19;97020.19;;;17.91;63.68
8699;BME280;4386;51.236;6.742;2023-05-09T02:56:22;97014.00;;;17.90;63.93
8699;BME280;4386;51.236;6.742;2023-05-09T02:57:25;97017.50;;;17.91;63.70
8699;BME280;4386;51.236;6.742;2023-05-09T02:58:28;97021.00;;;17.91;63.93
8699;BME280;4386;51.236;6.742;2023-05-09T02:59:31;97011.31;;;17.90;63.70
8699;BME280;4386;51.236;6.742;2023-05-09T03:00:36;97025.53;;;17.91;63.92
8699;BME280;4386;51.236;6.742;2023-05-09T03:01:43;97018.59;;;17.90;63.88
8699;BME280;4386;51.236;6.742;2023-05-09T03:03:01;97013.22;;;17.90;63.94
8699;BME280;4386;51.236;6.742;2023-05-09T03:04:08;97017.19;;;17.87;64.00
8699;BME280;4386;51.236;6.742;2023-05-09T03:05:16;97028.44;;;17.84;64.21
8699;BME280;4386;51.236;6.742;2023-05-09T03:06:19;97021.47;;;17.83;64.32
8699;BME280;4386;51.236;6.742;2023-05-09T03:07:23;97017.19;;;17.82;64.39
8699;BME280;4386;51.236;6.742;2023-05-09T03:08:25;97017.19;;;17.82;64.49
8699;BME280;4386;51.236;6.742;2023-05-09T03:09:29;97022.53;;;17.82;64.41
8699;BME280;4386;51.236;6.742;2023-05-09T03:10:31;97020.91;;;17.81;64.61
8699;BME280;4386;51.236;6.742;2023-05-09T03:11:34;97018.22;;;17.81;64.70
8699;BME280;4386;51.236;6.742;2023-05-09T03:12:38;97020.09;;;17.81;64.92
8699;BME280;4386;51.236;6.742;2023-05-09T03:13:44;97024.66;;;17.80;64.90
8699;BME280;4386;51.236;6.742;2023-05-09T03:14:47;97023.06;;;17.79;64.84
8699;BME280;4386;51.236;6.742;2023-05-09T03:15:50;97017.69;;;17.79;64.71
8699;BME280;4386;51.236;6.742;2023-05-09T03:16:54;97016.88;;;17.79;64.72
8699;BME280;4386;51.236;6.742;2023-05-09T03:17:58;97011.78;;;17.77;65.13
8699;BME280;4386;51.236;6.742;2023-05-09T03:19:01;97017.13;;;17.77;65.11
8699;BME280;4386;51.236;6.742;2023-05-09T03:20:05;97010.19;;;17.76;65.53
8699;BME280;4386;51.236;6.742;2023-05-09T03:21:12;97015.53;;;17.76;65.78
8699;BME280;4386;51.236;6.742;2023-05-09T03:22:15;97013.66;;;17.77;65.57
8699;BME280;4386;51.236;6.742;2023-05-09T03:23:18;97012.84;;;17.76;65.43
8699;BME280;4386;51.236;6.742;2023-05-09T03:24:21;97011.78;;;17.77;65.81
8699;BME280;4386;51.236;6.742;2023-05-09T03:25:24;97012.59;;;17.78;66.08
8699;BME280;4386;51.236;6.742;2023-05-09T03:26:28;97016.06;;;17.78;65.80
8699;BME280;4386;51.236;6.742;2023-05-09T03:27:31;97015.25;;;17.78;66.16
8699;BME280;4386;51.236;6.742;2023-05-09T03:28:34;97016.06;;;17.78;66.01
8699;BME280;4386;51.236;6.742;2023-05-09T03:29:36;97012.59;;;17.78;66.37
8699;BME280;4386;51.236;6.742;2023-05-09T03:30:40;97021.44;;;17.78;66.35
8699;BME280;4386;51.236;6.742;2023-05-09T03:31:42;97016.88;;;17.79;66.66
8699;BME280;4386;51.236;6.742;2023-05-09T03:32:46;97015.03;;;17.79;66.62
8699;BME280;4386;51.236;6.742;2023-05-09T03:33:50;97016.59;;;17.80;66.89
8699;BME280;4386;51.236;6.742;2023-05-09T03:34:53;97018.00;;;17.83;67.01
8699;BME280;4386;51.236;6.742;2023-05-09T03:35:56;97017.19;;;17.82;67.20
8699;BME280;4386;51.236;6.742;2023-05-09T03:36:59;97016.66;;;17.85;67.20
8699;BME280;4386;51.236;6.742;2023-05-09T03:38:03;97017.47;;;17.86;67.46
8699;BME280;4386;51.236;6.742;2023-05-09T03:39:07;97019.06;;;17.87;67.28
8699;BME280;4386;51.236;6.742;2023-05-09T03:40:10;97012.41;;;17.89;67.53
8699;BME280;4386;51.236;6.742;2023-05-09T03:41:15;97013.22;;;17.90;67.52
8699;BME280;4386;51.236;6.742;2023-05-09T03:42:18;97016.16;;;17.88;67.72
8699;BME280;4386;51.236;6.742;2023-05-09T03:43:22;97010.78;;;17.88;67.53
8699;BME280;4386;51.236;6.742;2023-05-09T03:44:25;97015.09;;;17.89;67.71
8699;BME280;4386;51.236;6.742;2023-05-09T03:45:28;97006.53;;;17.92;67.71
8699;BME280;4386;51.236;6.742;2023-05-09T03:46:31;97008.13;;;17.93;67.76
8699;BME280;4386;51.236;6.742;2023-05-09T03:47:34;97010.88;;;17.98;67.92
8699;BME280;4386;51.236;6.742;2023-05-09T03:48:37;97003.34;;;18.00;67.71
8699;BME280;4386;51.236;6.742;2023-05-09T03:49:42;96998.28;;;18.04;67.92
8699;BME280;4386;51.236;6.742;2023-05-09T03:50:44;97007.69;;;18.06;67.75
8699;BME280;4386;51.236;6.742;2023-05-09T03:51:47;97001.25;;;18.07;67.73
8699;BME280;4386;51.236;6.742;2023-05-09T03:52:50;97005.28;;;18.10;67.64
8699;BME280;4386;51.236;6.742;2023-05-09T03:53:53;97004.25;;;18.11;67.36
8699;BME280;4386;51.236;6.742;2023-05-09T03:54:56;97006.91;;;18.11;67.37
8699;BME280;4386;51.236;6.742;2023-05-09T03:56:00;97000.22;;;18.08;67.29
8699;BME280;4386;51.236;6.742;2023-05-09T03:57:03;96998.59;;;18.07;67.43
8699;BME280;4386;51.236;6.742;2023-05-09T03:58:06;96998.28;;;18.04;67.21
8699;BME280;4386;51.236;6.742;2023-05-09T03:59:09;96998.00;;;18.00;67.24
8699;BME280;4386;51.236;6.742;2023-05-09T04:00:12;96999.34;;;17.98;67.72
8699;BME280;4386;51.236;6.742;2023-05-09T04:01:16;96999.03;;;17.94;67.89
8699;BME280;4386;51.236;6.742;2023-05-09T04:02:21;97002.22;;;17.91;68.00
8699;BME280;4386;51.236;6.742;2023-05-09T04:03:23;96998.44;;;17.87;68.18
8699;BME280;4386;51.236;6.742;2023-05-09T04:04:28;97006.19;;;17.84;68.19
8699;BME280;4386;51.236;6.742;2023-05-09T04:05:32;97005.34;;;17.78;68.39
8699;BME280;4386;51.236;6.742;2023-05-09T04:06:36;97003.16;;;17.70;68.30
8699;BME280;4386;51.236;6.742;2023-05-09T04:07:39;97004.47;;;17.67;68.50
8699;BME280;4386;51.236;6.742;2023-05-09T04:08:43;97005.50;;;17.61;68.79
8699;BME280;4386;51.236;6.742;2023-05-09T04:09:45;97005.19;;;17.58;68.51
8699;BME280;4386;51.236;6.742;2023-05-09T04:10:50;97002.47;;;17.53;68.78
8699;BME280;4386;51.236;6.742;2023-05-09T04:11:53;97008.31;;;17.50;68.83
8699;BME280;4386;51.236;6.742;2023-05-09T04:12:57;97006.41;;;17.45;69.04
8699;BME280;4386;51.236;6.742;2023-05-09T04:13:59;97007.16;;;17.41;68.96
8699;BME280;4386;51.236;6.742;2023-05-09T04:15:06;97007.66;;;17.38;69.20
8699;BME280;4386;51.236;6.742;2023-05-09T04:16:08;97007.63;;;17.33;69.08
8699;BME280;4386;51.236;6.742;2023-05-09T04:17:12;97003.00;;;17.23;69.45
8699;BME280;4386;51.236;6.742;2023-05-09T04:18:15;97007.00;;;17.21;69.68
8699;BME280;4386;51.236;6.742;2023-05-09T04:19:18;97003.19;;;17.16;69.69
8699;BME280;4386;51.236;6.742;2023-05-09T04:20:21;97002.09;;;17.12;69.88
8699;BME280;4386;51.236;6.742;2023-05-09T04:21:25;96997.78;;;17.11;69.93
8699;BME280;4386;51.236;6.742;2023-05-09T04:22:28;96998.88;;;17.10;70.18
8699;BME280;4386;51.236;6.742;2023-05-09T04:23:32;97000.97;;;17.08;70.13
8699;BME280;4386;51.236;6.742;2023-05-09T04:24:35;97011.66;;;17.08;70.02
8699;BME280;4386;51.236;6.742;2023-05-09T04:25:39;96999.09;;;17.09;70.03
8699;BME280;4386;51.236;6.742;2023-05-09T04:26:42;97002.84;;;17.08;69.85
8699;BME280;4386;51.236;6.742;2023-05-09T04:27:45;97004.22;;;17.10;69.78
8699;BME280;4386;51.236;6.742;2023-05-09T04:28:48;97010.69;;;17.14;69.62
8699;BME280;4386;51.236;6.742;2023-05-09T04:29:51;97005.34;;;17.14;69.33
8699;BME280;4386;51.236;6.742;2023-05-09T04:30:54;97011.78;;;17.18;69.10
8699;BME280;4386;51.236;6.742;2023-05-09T04:31:58;97005.91;;;17.22;69.14
8699;BME280;4386;51.236;6.742;2023-05-09T04:33:01;97005.97;;;17.27;68.61
8699;BME280;4386;51.236;6.742;2023-05-09T04:34:04;97008.16;;;17.30;68.35
8699;BME280;4386;51.236;6.742;2023-05-09T04:35:07;97005.50;;;17.35;68.07
8699;BME280;4386;51.236;6.742;2023-05-09T04:36:11;97012.47;;;17.36;67.85
8699;BME280;4386;51.236;6.742;2023-05-09T04:37:14;97010.91;;;17.40;67.75
8699;BME280;4386;51.236;6.742;2023-05-09T04:38:18;97009.59;;;17.42;67.63
8699;BME280;4386;51.236;6.742;2023-05-09T04:39:21;97006.09;;;17.42;67.62
8699;BME280;4386;51.236;6.742;2023-05-09T04:40:24;97010.44;;;17.48;67.36
8699;BME280;4386;51.236;6.742;2023-05-09T04:41:27;97001.66;;;17.52;67.32
8699;BME280;4386;51.236;6.742;2023-05-09T04:42:31;97008.97;;;17.57;67.12
8699;BME280;4386;51.236;6.742;2023-05-09T04:43:34;97008.44;;;17.60;66.99
8699;BME280;4386;51.236;6.742;2023-05-09T04:44:38;97004.75;;;17.66;67.04
8699;BME280;4386;51.236;6.742;2023-05-09T04:45:40;97005.84;;;17.70;66.53
8699;BME280;4386;51.236;6.742;2023-05-09T04:46:44;97015.53;;;17.76;66.11
8699;BME280;4386;51.236;6.742;2023-05-09T04:47:46;97013.16;;;17.80;66.12
8699;BME280;4386;51.236;6.742;2023-05-09T04:48:50;97011.00;;;17.82;66.21
8699;BME280;4386;51.236;6.742;2023-05-09T04:49:52;97020.91;;;17.81;66.10
8699;BME280;4386;51.236;6.742;2023-05-09T04:50:56;97020.91;;;17.81;66.10
8699;BME280;4386;51.236;6.742;2023-05-09T04:51:58;97027.91;;;17.82;66.21
8699;BME280;4386;51.236;6.742;2023-05-09T04:53:03;97027.38;;;17.85;66.37
8699;BME280;4386;51.236;6.742;2023-05-09T04:54:05;97025.00;;;17.89;66.15
8699;BME280;4386;51.236;6.742;2023-05-09T04:55:10;97027.47;;;17.95;66.17
8699;BME280;4386;51.236;6.742;2023-05-09T04:56:12;97027.22;;;18.02;65.96
8699;BME280;4386;51.236;6.742;2023-05-09T04:57:16;97019.22;;;18.07;66.01
8699;BME280;4386;51.236;6.742;2023-05-09T04:58:19;97028.66;;;18.14;66.09
8699;BME280;4386;51.236;6.742;2023-05-09T04:59:23;97027.66;;;18.26;66.11
8699;BME280;4386;51.236;6.742;2023-05-09T05:00:26;97037.34;;;18.37;65.86
8699;BME280;4386;51.236;6.742;2023-05-09T05:01:29;97029.69;;;18.50;65.79
8699;BME280;4386;51.236;6.742;2023-05-09T05:02:32;97031.34;;;18.61;65.60
8699;BME280;4386;51.236;6.742;2023-05-09T05:03:35;97025.75;;;18.73;65.35
8699;BME280;4386;51.236;6.742;2023-05-09T05:04:38;97026.34;;;18.85;65.48
8699;BME280;4386;51.236;6.742;2023-05-09T05:05:42;97024.78;;;18.99;65.13
8699;BME280;4386;51.236;6.742;2023-05-09T05:06:44;97032.31;;;19.17;64.79
8699;BME280;4386;51.236;6.742;2023-05-09T05:07:48;97026.47;;;19.36;64.64
8699;BME280;4386;51.236;6.742;2023-05-09T05:08:51;97025.19;;;19.53;63.95
8699;BME280;4386;51.236;6.742;2023-05-09T05:09:55;97019.53;;;19.75;63.32
8699;BME280;4386;51.236;6.742;2023-05-09T05:10:57;97022.19;;;20.00;63.18
8699;BME280;4386;51.236;6.742;2023-05-09T05:12:01;97021.09;;;20.21;62.69
8699;BME280;4386;51.236;6.742;2023-05-09T05:13:05;97022.69;;;20.48;61.92
8699;BME280;4386;51.236;6.742;2023-05-09T05:14:09;97016.41;;;20.72;61.09
8699;BME280;4386;51.236;6.742;2023-05-09T05:15:11;97024.88;;;21.00;60.26
8699;BME280;4386;51.236;6.742;2023-05-09T05:16:16;97018.88;;;21.18;59.80
8699;BME280;4386;51.236;6.742;2023-05-09T05:17:18;97029.34;;;21.29;59.00
8699;BME280;4386;51.236;6.742;2023-05-09T05:18:22;97034.09;;;21.43;58.60
8699;BME280;4386;51.236;6.742;2023-05-09T05:19:25;97031.78;;;21.60;57.72
8699;BME280;4386;51.236;6.742;2023-05-09T05:20:28;97035.97;;;21.81;57.64
8699;BME280;4386;51.236;6.742;2023-05-09T05:21:31;97024.47;;;22.04;56.95
8699;BME280;4386;51.236;6.742;2023-05-09T05:22:35;97020.78;;;22.24;56.44
8699;BME280;4386;51.236;6.742;2023-05-09T05:23:38;97025.16;;;22.44;55.71
8699;BME280;4386;51.236;6.742;2023-05-09T05:24:42;97020.88;;;22.66;55.05
8699;BME280;4386;51.236;6.742;2023-05-09T05:25:45;97021.22;;;22.83;54.48
8699;BME280;4386;51.236;6.742;2023-05-09T05:26:48;97023.72;;;22.99;54.29
8699;BME280;4386;51.236;6.742;2023-05-09T05:27:51;97013.94;;;23.21;53.88
8699;BME280;4386;51.236;6.742;2023-05-09T05:28:54;97010.16;;;23.41;53.71
8699;BME280;4386;51.236;6.742;2023-05-09T05:29:58;97013.97;;;23.59;53.12
8699;BME280;4386;51.236;6.742;2023-05-09T05:31:01;97014.75;;;23.78;52.29
8699;BME280;4386;51.236;6.742;2023-05-09T05:32:04;97015.78;;;23.96;52.16
8699;BME280;4386;51.236;6.742;2023-05-09T05:33:07;97019.66;;;24.08;51.34
8699;BME280;4386;51.236;6.742;2023-05-09T05:34:10;97011.44;;;24.13;50.92
8699;BME280;4386;51.236;6.742;2023-05-09T05:35:13;97019.88;;;24.25;50.54
8699;BME280;4386;51.236;6.742;2023-05-09T05:36:17;97018.91;;;24.35;50.53
8699;BME280;4386;51.236;6.742;2023-05-09T05:37:20;97011.72;;;24.44;49.95
8699;BME280;4386;51.236;6.742;2023-05-09T05:38:23;97012.69;;;24.48;49.48
8699;BME280;4386;51.236;6.742;2023-05-09T05:39:26;97016.13;;;24.54;50.01
8699;BME280;4386;51.236;6.742;2023-05-09T05:40:30;97020.94;;;24.57;49.72
8699;BME280;4386;51.236;6.742;2023-05-09T05:41:34;97014.59;;;24.61;49.09
8699;BME280;4386;51.236;6.742;2023-05-09T05:42:36;97012.09;;;24.65;49.15
8699;BME280;4386;51.236;6.742;2023-05-09T05:43:40;97014.13;;;24.73;49.32
8699;BME280;4386;51.236;6.742;2023-05-09T05:44:42;97012.91;;;24.79;49.11
8699;BME280;4386;51.236;6.742;2023-05-09T05:45:46;97008.53;;;24.83;48.69
8699;BME280;4386;51.236;6.742;2023-05-09T05:46:48;97010.91;;;24.84;48.45
8699;BME280;4386;51.236;6.742;2023-05-09T05:47:52;97011.72;;;24.85;48.24
8699;BME280;4386;51.236;6.742;2023-05-09T05:48:57;97009.50;;;24.87;47.79
8699;BME280;4386;51.236;6.742;2023-05-09T05:49:59;97012.13;;;24.92;48.17
8699;BME280;4386;51.236;6.742;2023-05-09T05:51:03;97009.81;;;24.99;47.97